Kodiak — WUV9256 — position and weather

sailwx.info

Track history (hours):
 
Tides and Currents Weather Stations Pressure Air Temp Water Temp Dewpoint Dewpoint Depression Visibility Wind Speed Wind Dir Waves Ship Positions

Kodiak

Owner: KLEMZAK, JOHN, KODIAK, AK. More information available from US FCC via Universal Licensing System and Coast Guard Vessel Documentation Center.

Last reported at 2018-Apr-16 18:37 UTC. Time now 2018-Apr-21 23:22 UTC.
Position N 47°39' W 122°22'.

Length 37 m; draft 3.5 m.

Type: Fishing. MMSI: 303546000.

Date/timePositionNaut miles runAvg speedWind from/ knotsBaromVisibWave heightAir tempDewpointWater temp
2018-Apr-16 18:37N 47°39' W 122°22'0 3.0
2018-Apr-16 18:30N 47°40' W 122°23'1 2.0
2018-Apr-16 17:58N 47°40' W 122°24'1 2.0
2018-Apr-16 17:31N 47°41' W 122°25'3 6.6
2018-Apr-16 17:00N 47°44' W 122°27'4 7.4
2018-Apr-16 16:30N 47°47' W 122°27'4 7.7
2018-Apr-16 16:00N 47°51' W 122°28'3 7.0
2018-Apr-16 15:30N 47°54' W 122°30'25 6.9
2018-Apr-16 11:52N 48°11' W 122°57'411.8
2018-Apr-16 11:29N 48°12' W 123°04'611.4
2018-Apr-16 10:59N 48°12' W 123°13'611.9
2018-Apr-16 10:30N 48°12' W 123°21'611.2
2018-Apr-16 10:00N 48°12' W 123°30'611.1
2018-Apr-16 09:28N 48°12' W 123°38'2410.5
2018-Apr-16 07:11N 48°18' W 124°14'310.0
2018-Apr-16 06:50N 48°20' W 124°18'3 9.3
2018-Apr-16 06:29N 48°21' W 124°23'4 8.9
2018-Apr-16 06:00N 48°23' W 124°28'4 8.3
2018-Apr-16 05:30N 48°24' W 124°34'4 7.5
2018-Apr-16 04:59N 48°26' W 124°40'4 7.5
2018-Apr-16 04:30N 48°27' W 124°45'4 8.1
2018-Apr-16 03:58N 48°28' W 124°51'27 8.4
2018-Apr-16 00:43N 48°37' W 125°30'2 8.8
2018-Apr-16 00:28N 48°38' W 125°33'5 8.8
2018-Apr-15 23:57N 48°40' W 125°39'4 8.6
2018-Apr-15 23:29N 48°43' W 125°44'4 8.5
2018-Apr-15 23:00N 48°45' W 125°49'4 8.5
2018-Apr-15 22:30N 48°47' W 125°54'4 8.3
2018-Apr-15 22:00N 48°49' W 125°60'4 8.1
2018-Apr-15 21:30N 48°51' W 126°05'4 8.4
2018-Apr-15 20:59N 48°53' W 126°11'  
Track history (hours):
 
Tides and Currents Weather Stations Pressure Air Temp Water Temp Dewpoint Dewpoint Depression Visibility Wind Speed Wind Dir Waves Ship Positions

Kodiak

Owner: KLEMZAK, JOHN, KODIAK, AK. More information available from US FCC via Universal Licensing System and Coast Guard Vessel Documentation Center.

Last reported at 2018-Apr-16 18:37 UTC. Time now 2018-Apr-21 23:22 UTC.
Position N 47°39' W 122°22'.

Length 37 m; draft 3.5 m.

Type: Fishing. MMSI: 303546000.

Date/timePositionNaut miles runAvg speedWind from/ knotsBaromVisibWave heightAir tempDewpointWater temp
2018-Apr-16 18:37N 47°39' W 122°22'0 3.0
2018-Apr-16 18:30N 47°40' W 122°23'1 2.0
2018-Apr-16 17:58N 47°40' W 122°24'1 2.0
2018-Apr-16 17:31N 47°41' W 122°25'3 6.6
2018-Apr-16 17:00N 47°44' W 122°27'4 7.4
2018-Apr-16 16:30N 47°47' W 122°27'4 7.7
2018-Apr-16 16:00N 47°51' W 122°28'3 7.0
2018-Apr-16 15:30N 47°54' W 122°30'25 6.9
2018-Apr-16 11:52N 48°11' W 122°57'411.8
2018-Apr-16 11:29N 48°12' W 123°04'611.4
2018-Apr-16 10:59N 48°12' W 123°13'611.9
2018-Apr-16 10:30N 48°12' W 123°21'611.2
2018-Apr-16 10:00N 48°12' W 123°30'611.1
2018-Apr-16 09:28N 48°12' W 123°38'2410.5
2018-Apr-16 07:11N 48°18' W 124°14'310.0
2018-Apr-16 06:50N 48°20' W 124°18'3 9.3
2018-Apr-16 06:29N 48°21' W 124°23'4 8.9
2018-Apr-16 06:00N 48°23' W 124°28'4 8.3
2018-Apr-16 05:30N 48°24' W 124°34'4 7.5
2018-Apr-16 04:59N 48°26' W 124°40'4 7.5
2018-Apr-16 04:30N 48°27' W 124°45'4 8.1
2018-Apr-16 03:58N 48°28' W 124°51'27 8.4
2018-Apr-16 00:43N 48°37' W 125°30'2 8.8
2018-Apr-16 00:28N 48°38' W 125°33'5 8.8
2018-Apr-15 23:57N 48°40' W 125°39'4 8.6
2018-Apr-15 23:29N 48°43' W 125°44'4 8.5
2018-Apr-15 23:00N 48°45' W 125°49'4 8.5
2018-Apr-15 22:30N 48°47' W 125°54'4 8.3
2018-Apr-15 22:00N 48°49' W 125°60'4 8.1
2018-Apr-15 21:30N 48°51' W 126°05'4 8.4
2018-Apr-15 20:59N 48°53' W 126°11'  

Dump ship's entire track history